Lake Worth, FL

3:44 AM EDT on October 24, 2014 (GMT -0400)
Thoroughbred Lakes | Change Station
CLOSE
Current Station
Personal Weather Station
Location: Lake Worth, FL
Elevation: 39 ft
Nearby Weather Stations

Elev 39 ft 26.60 °N, 80.21 °W | Updated 12 minutes ago

Overcast
Overcast
76.1 °F
Feels Like 74 °F
N
2.7
Wind Variable Wind from ESE

Today
High -- | Low -- °F
--% Chance of Precip.
Yesterday
High -- | Low -- °F
Precip. -- in
7:25 AM 6:44 PM
New Moon, 0% visible
Pressure 29.87 in
Visibility 10.0 miles
Clouds Overcast 3500 ft
Heat Index 74 °F
Dew Point Not available.
Humidity Not available.
Rainfall 0.00 in
Snow Depth Not available.
UV 0 out of 12
Pollen 3.80 out of 12
Air Quality Not available.
Flu Activity Local Activity
METAR KPBI 240653Z 05011KT 10SM OVC035 25/18 A2987 RMK AO2 SLP115 T02500178

More Conditions Fewer Conditions

Pressure 29.87 in
Visibility 10.0 miles
Clouds Overcast 3500 ft
Heat Index 74 °F
Dew Point Not available.
Humidity Not available.
Rainfall 0.00 in
Snow Depth Not available.
UV 0 out of 12
Pollen 3.80 out of 12
Air Quality Not available.
Flu Activity Local Activity
METAR KPBI 240653Z 05011KT 10SM OVC035 25/18 A2987 RMK AO2 SLP115 T02500178

More Conditions Fewer Conditions

10-Day Weather Forecast

Almanac

Astronomy

Oct. 24, 2014 Rise Set
Actual Time 7:25 AM EDT 6:44 PM EDT
Civil Twilight 7:01 AM EDT 7:07 PM EDT
Nautical Twilight 6:34 AM EDT 7:35 PM EDT
Astronomical Twilight 6:07 AM EDT 8:02 PM EDT
Moon 8:00 AM EDT 7:27 PM EDT
Length of Visible Light 12h 06m
Length of Day
11h 19m
Tomorrow will be 1m 26s shorter.
New Moon, 0% of the Moon is Illuminated
Today
New Moon
Oct 30
First Quarter
Nov 6
Full
Nov 14
Last Quarter
Nov 22
New

Today's Extremes

State Highs State Lows

Community

WunderPhotos

Upload Photos

1,764,512 photos uploaded!

WunderBlogs® & News

Nearby

Air Quality

  Air Quality AQ Index Pollutant
Yesterday Good
OZONE
Yesterday Good
PM2.5
Friday Good
OZONE
Friday Good
PM2.5
Saturday Good
OZONE
Saturday Good
PM2.5

Snow Depth

Station Depth Elevation
No new snow has been reported.

Earthquake Activity

City Distance Mag. Time & Date
No recent earthquake activity has been reported nearby.
Minimum magnitude displayed is 2.5.

Coastal Water Temperatures

Place Temperature
Lake Worth, FL 80.1 °F
Virginia Key, FL 80.1 °F

Nearby Weather Stations